sensor_id;sensor_type;location;lat;lon;timestamp;P1;durP1;ratioP1;P2;durP2;ratioP2
7203;SDS011;3643;52.460;13.322;2022-09-09T00:01:24;21.63;;;12.13;;
7203;SDS011;3643;52.460;13.322;2022-09-09T00:04:05;31.80;;;14.63;;
7203;SDS011;3643;52.460;13.322;2022-09-09T00:06:43;28.37;;;14.53;;
7203;SDS011;3643;52.460;13.322;2022-09-09T00:09:15;26.67;;;13.47;;
7203;SDS011;3643;52.460;13.322;2022-09-09T00:11:46;26.20;;;13.17;;
7203;SDS011;3643;52.460;13.322;2022-09-09T00:14:22;25.93;;;13.27;;
7203;SDS011;3643;52.460;13.322;2022-09-09T00:16:56;30.23;;;14.13;;
7203;SDS011;3643;52.460;13.322;2022-09-09T00:19:31;29.50;;;14.80;;
7203;SDS011;3643;52.460;13.322;2022-09-09T00:22:13;30.83;;;14.10;;
7203;SDS011;3643;52.460;13.322;2022-09-09T00:24:44;27.73;;;11.50;;
7203;SDS011;3643;52.460;13.322;2022-09-09T00:27:17;21.83;;;11.40;;
7203;SDS011;3643;52.460;13.322;2022-09-09T00:29:54;22.47;;;12.27;;
7203;SDS011;3643;52.460;13.322;2022-09-09T00:32:28;29.80;;;14.37;;
7203;SDS011;3643;52.460;13.322;2022-09-09T00:34:59;30.17;;;14.07;;
7203;SDS011;3643;52.460;13.322;2022-09-09T00:37:31;30.43;;;15.17;;
7203;SDS011;3643;52.460;13.322;2022-09-09T00:40:05;39.27;;;17.07;;
7203;SDS011;3643;52.460;13.322;2022-09-09T00:42:46;31.73;;;16.03;;
7203;SDS011;3643;52.460;13.322;2022-09-09T00:45:30;37.50;;;16.20;;
7203;SDS011;3643;52.460;13.322;2022-09-09T00:48:13;29.53;;;14.57;;
7203;SDS011;3643;52.460;13.322;2022-09-09T00:50:45;28.33;;;13.33;;
7203;SDS011;3643;52.460;13.322;2022-09-09T00:53:28;24.13;;;12.17;;
7203;SDS011;3643;52.460;13.322;2022-09-09T00:56:08;27.37;;;14.53;;
7203;SDS011;3643;52.460;13.322;2022-09-09T00:58:42;28.50;;;14.57;;
7203;SDS011;3643;52.460;13.322;2022-09-09T01:01:18;30.83;;;15.40;;
7203;SDS011;3643;52.460;13.322;2022-09-09T01:03:47;36.93;;;15.20;;
7203;SDS011;3643;52.460;13.322;2022-09-09T01:06:21;30.00;;;14.63;;
7203;SDS011;3643;52.460;13.322;2022-09-09T01:08:59;26.47;;;13.03;;
7203;SDS011;3643;52.460;13.322;2022-09-09T01:11:41;26.67;;;13.43;;
7203;SDS011;3643;52.460;13.322;2022-09-09T01:14:20;29.80;;;14.60;;
7203;SDS011;3643;52.460;13.322;2022-09-09T01:17:00;31.43;;;14.97;;
7203;SDS011;3643;52.460;13.322;2022-09-09T01:19:40;27.77;;;13.10;;
7203;SDS011;3643;52.460;13.322;2022-09-09T01:22:20;20.27;;;11.03;;
7203;SDS011;3643;52.460;13.322;2022-09-09T01:25:08;26.97;;;13.30;;
7203;SDS011;3643;52.460;13.322;2022-09-09T01:27:55;22.87;;;11.17;;
7203;SDS011;3643;52.460;13.322;2022-09-09T01:30:26;25.27;;;12.30;;
7203;SDS011;3643;52.460;13.322;2022-09-09T01:32:57;30.63;;;14.03;;
7203;SDS011;3643;52.460;13.322;2022-09-09T01:35:29;35.30;;;14.17;;
7203;SDS011;3643;52.460;13.322;2022-09-09T01:38:05;28.20;;;14.37;;
7203;SDS011;3643;52.460;13.322;2022-09-09T01:40:34;35.37;;;14.87;;
7203;SDS011;3643;52.460;13.322;2022-09-09T01:43:04;34.60;;;14.77;;
7203;SDS011;3643;52.460;13.322;2022-09-09T01:45:34;28.03;;;13.30;;
7203;SDS011;3643;52.460;13.322;2022-09-09T01:48:03;37.53;;;14.67;;
7203;SDS011;3643;52.460;13.322;2022-09-09T01:50:31;35.70;;;14.40;;
7203;SDS011;3643;52.460;13.322;2022-09-09T01:53:00;32.87;;;14.37;;
7203;SDS011;3643;52.460;13.322;2022-09-09T01:55:30;38.03;;;15.10;;
7203;SDS011;3643;52.460;13.322;2022-09-09T01:58:06;34.07;;;14.60;;
7203;SDS011;3643;52.460;13.322;2022-09-09T02:00:46;38.47;;;15.10;;
7203;SDS011;3643;52.460;13.322;2022-09-09T02:03:23;33.93;;;14.87;;
7203;SDS011;3643;52.460;13.322;2022-09-09T02:05:58;41.97;;;15.43;;
7203;SDS011;3643;52.460;13.322;2022-09-09T02:08:34;49.30;;;16.43;;
7203;SDS011;3643;52.460;13.322;2022-09-09T02:11:09;40.87;;;16.03;;
7203;SDS011;3643;52.460;13.322;2022-09-09T02:13:44;48.83;;;17.63;;
7203;SDS011;3643;52.460;13.322;2022-09-09T02:16:16;45.67;;;16.37;;
7203;SDS011;3643;52.460;13.322;2022-09-09T02:18:51;45.60;;;16.53;;
7203;SDS011;3643;52.460;13.322;2022-09-09T02:21:23;48.23;;;17.50;;
7203;SDS011;3643;52.460;13.322;2022-09-09T02:23:55;54.47;;;18.97;;
7203;SDS011;3643;52.460;13.322;2022-09-09T02:26:26;53.37;;;17.93;;
7203;SDS011;3643;52.460;13.322;2022-09-09T02:28:57;48.23;;;16.33;;
7203;SDS011;3643;52.460;13.322;2022-09-09T02:31:28;49.70;;;17.33;;
7203;SDS011;3643;52.460;13.322;2022-09-09T02:34:02;48.10;;;17.10;;
7203;SDS011;3643;52.460;13.322;2022-09-09T02:36:35;44.37;;;16.67;;
7203;SDS011;3643;52.460;13.322;2022-09-09T02:39:05;55.00;;;17.60;;
7203;SDS011;3643;52.460;13.322;2022-09-09T02:41:36;50.47;;;17.77;;
7203;SDS011;3643;52.460;13.322;2022-09-09T02:44:10;45.83;;;17.20;;
7203;SDS011;3643;52.460;13.322;2022-09-09T02:46:44;42.63;;;16.03;;
7203;SDS011;3643;52.460;13.322;2022-09-09T02:49:28;46.07;;;16.13;;
7203;SDS011;3643;52.460;13.322;2022-09-09T02:52:08;45.40;;;16.20;;
7203;SDS011;3643;52.460;13.322;2022-09-09T02:54:42;51.10;;;17.80;;
7203;SDS011;3643;52.460;13.322;2022-09-09T02:57:13;50.17;;;16.97;;
7203;SDS011;3643;52.460;13.322;2022-09-09T02:59:52;45.43;;;16.57;;
7203;SDS011;3643;52.460;13.322;2022-09-09T03:02:21;32.20;;;13.63;;
7203;SDS011;3643;52.460;13.322;2022-09-09T03:04:51;33.70;;;13.83;;
7203;SDS011;3643;52.460;13.322;2022-09-09T03:07:20;33.30;;;14.53;;
7203;SDS011;3643;52.460;13.322;2022-09-09T03:09:49;50.83;;;16.27;;
7203;SDS011;3643;52.460;13.322;2022-09-09T03:12:17;40.30;;;15.63;;
7203;SDS011;3643;52.460;13.322;2022-09-09T03:14:46;47.77;;;16.33;;
7203;SDS011;3643;52.460;13.322;2022-09-09T03:17:16;39.17;;;15.97;;
7203;SDS011;3643;52.460;13.322;2022-09-09T03:19:44;39.10;;;15.90;;
7203;SDS011;3643;52.460;13.322;2022-09-09T03:22:13;38.70;;;15.43;;
7203;SDS011;3643;52.460;13.322;2022-09-09T03:24:44;30.73;;;14.30;;
7203;SDS011;3643;52.460;13.322;2022-09-09T03:27:13;37.80;;;14.57;;
7203;SDS011;3643;52.460;13.322;2022-09-09T03:29:42;28.93;;;13.47;;
7203;SDS011;3643;52.460;13.322;2022-09-09T03:32:11;32.60;;;13.23;;
7203;SDS011;3643;52.460;13.322;2022-09-09T03:34:41;43.10;;;16.03;;
7203;SDS011;3643;52.460;13.322;2022-09-09T03:37:10;34.53;;;14.17;;
7203;SDS011;3643;52.460;13.322;2022-09-09T03:39:38;34.93;;;14.10;;
7203;SDS011;3643;52.460;13.322;2022-09-09T03:42:07;31.47;;;13.13;;
7203;SDS011;3643;52.460;13.322;2022-09-09T03:44:35;30.03;;;13.07;;
7203;SDS011;3643;52.460;13.322;2022-09-09T03:47:04;27.63;;;12.10;;
7203;SDS011;3643;52.460;13.322;2022-09-09T03:49:33;24.27;;;11.10;;
7203;SDS011;3643;52.460;13.322;2022-09-09T03:52:03;26.53;;;12.17;;
7203;SDS011;3643;52.460;13.322;2022-09-09T03:54:31;30.97;;;12.93;;
7203;SDS011;3643;52.460;13.322;2022-09-09T03:57:00;38.17;;;15.00;;
7203;SDS011;3643;52.460;13.322;2022-09-09T03:59:29;24.07;;;12.33;;
7203;SDS011;3643;52.460;13.322;2022-09-09T04:01:58;33.13;;;12.43;;
7203;SDS011;3643;52.460;13.322;2022-09-09T04:04:26;22.80;;;12.40;;
7203;SDS011;3643;52.460;13.322;2022-09-09T04:06:55;22.10;;;10.13;;
7203;SDS011;3643;52.460;13.322;2022-09-09T04:09:25;26.43;;;12.10;;
7203;SDS011;3643;52.460;13.322;2022-09-09T04:11:53;23.30;;;11.00;;
7203;SDS011;3643;52.460;13.322;2022-09-09T04:14:23;19.63;;;10.03;;
7203;SDS011;3643;52.460;13.322;2022-09-09T04:16:55;17.53;;;9.80;;
7203;SDS011;3643;52.460;13.322;2022-09-09T04:19:25;16.27;;;9.03;;
7203;SDS011;3643;52.460;13.322;2022-09-09T04:21:54;14.90;;;8.67;;
7203;SDS011;3643;52.460;13.322;2022-09-09T04:24:25;14.93;;;8.37;;
7203;SDS011;3643;52.460;13.322;2022-09-09T04:26:55;13.53;;;8.60;;
7203;SDS011;3643;52.460;13.322;2022-09-09T04:29:24;13.60;;;7.87;;
7203;SDS011;3643;52.460;13.322;2022-09-09T04:31:52;16.57;;;8.67;;
7203;SDS011;3643;52.460;13.322;2022-09-09T04:34:21;13.83;;;8.10;;
7203;SDS011;3643;52.460;13.322;2022-09-09T04:36:49;15.20;;;8.20;;
7203;SDS011;3643;52.460;13.322;2022-09-09T04:39:18;15.27;;;7.60;;
7203;SDS011;3643;52.460;13.322;2022-09-09T04:41:48;17.37;;;8.70;;
7203;SDS011;3643;52.460;13.322;2022-09-09T04:44:17;16.60;;;9.17;;
7203;SDS011;3643;52.460;13.322;2022-09-09T04:46:46;16.43;;;9.63;;
7203;SDS011;3643;52.460;13.322;2022-09-09T04:49:14;21.47;;;10.63;;
7203;SDS011;3643;52.460;13.322;2022-09-09T04:51:44;25.00;;;13.13;;
7203;SDS011;3643;52.460;13.322;2022-09-09T04:54:13;28.77;;;12.50;;
7203;SDS011;3643;52.460;13.322;2022-09-09T04:56:42;34.63;;;14.63;;
7203;SDS011;3643;52.460;13.322;2022-09-09T04:59:12;26.97;;;12.27;;
7203;SDS011;3643;52.460;13.322;2022-09-09T05:01:41;28.00;;;13.53;;
7203;SDS011;3643;52.460;13.322;2022-09-09T05:04:09;26.57;;;13.60;;
7203;SDS011;3643;52.460;13.322;2022-09-09T05:06:38;20.97;;;10.03;;
7203;SDS011;3643;52.460;13.322;2022-09-09T05:09:06;14.43;;;8.57;;
7203;SDS011;3643;52.460;13.322;2022-09-09T05:11:35;12.57;;;8.53;;
7203;SDS011;3643;52.460;13.322;2022-09-09T05:14:04;12.57;;;8.17;;
7203;SDS011;3643;52.460;13.322;2022-09-09T05:16:34;20.53;;;11.47;;
7203;SDS011;3643;52.460;13.322;2022-09-09T05:19:02;25.63;;;11.17;;
7203;SDS011;3643;52.460;13.322;2022-09-09T05:21:31;27.90;;;11.40;;
7203;SDS011;3643;52.460;13.322;2022-09-09T05:23:59;19.77;;;10.50;;
7203;SDS011;3643;52.460;13.322;2022-09-09T05:26:29;21.17;;;11.47;;
7203;SDS011;3643;52.460;13.322;2022-09-09T05:28:58;19.77;;;10.93;;
7203;SDS011;3643;52.460;13.322;2022-09-09T05:31:29;15.73;;;10.20;;
7203;SDS011;3643;52.460;13.322;2022-09-09T05:34:02;16.77;;;10.53;;
7203;SDS011;3643;52.460;13.322;2022-09-09T05:36:31;16.53;;;9.63;;
7203;SDS011;3643;52.460;13.322;2022-09-09T05:38:59;19.60;;;9.33;;
7203;SDS011;3643;52.460;13.322;2022-09-09T05:41:28;18.33;;;9.70;;
7203;SDS011;3643;52.460;13.322;2022-09-09T05:43:57;17.97;;;8.90;;
7203;SDS011;3643;52.460;13.322;2022-09-09T05:46:27;7.57;;;6.77;;
7203;SDS011;3643;52.460;13.322;2022-09-09T05:48:56;9.43;;;5.20;;
7203;SDS011;3643;52.460;13.322;2022-09-09T05:51:27;5.43;;;3.80;;
7203;SDS011;3643;52.460;13.322;2022-09-09T05:53:56;6.07;;;3.50;;
7203;SDS011;3643;52.460;13.322;2022-09-09T05:56:26;4.47;;;3.80;;
7203;SDS011;3643;52.460;13.322;2022-09-09T05:58:56;5.03;;;3.40;;
7203;SDS011;3643;52.460;13.322;2022-09-09T06:01:27;3.57;;;3.23;;
7203;SDS011;3643;52.460;13.322;2022-09-09T06:03:58;3.87;;;2.90;;
7203;SDS011;3643;52.460;13.322;2022-09-09T06:06:30;3.53;;;2.70;;
7203;SDS011;3643;52.460;13.322;2022-09-09T06:09:03;4.50;;;2.70;;
7203;SDS011;3643;52.460;13.322;2022-09-09T06:11:36;6.15;;;2.80;;
7203;SDS011;3643;52.460;13.322;2022-09-09T06:14:06;5.60;;;2.70;;
7203;SDS011;3643;52.460;13.322;2022-09-09T06:16:35;3.75;;;2.55;;
7203;SDS011;3643;52.460;13.322;2022-09-09T06:19:04;5.70;;;3.20;;
7203;SDS011;3643;52.460;13.322;2022-09-09T06:21:35;4.03;;;3.30;;
7203;SDS011;3643;52.460;13.322;2022-09-09T06:24:05;4.13;;;2.25;;
7203;SDS011;3643;52.460;13.322;2022-09-09T06:26:34;4.75;;;2.40;;
7203;SDS011;3643;52.460;13.322;2022-09-09T06:29:04;4.60;;;2.30;;
7203;SDS011;3643;52.460;13.322;2022-09-09T06:31:33;3.40;;;2.55;;
7203;SDS011;3643;52.460;13.322;2022-09-09T06:34:04;2.80;;;2.17;;
7203;SDS011;3643;52.460;13.322;2022-09-09T06:36:36;4.07;;;2.20;;
7203;SDS011;3643;52.460;13.322;2022-09-09T06:39:05;5.60;;;2.53;;
7203;SDS011;3643;52.460;13.322;2022-09-09T06:41:40;4.40;;;2.37;;
7203;SDS011;3643;52.460;13.322;2022-09-09T06:44:09;2.67;;;2.13;;
7203;SDS011;3643;52.460;13.322;2022-09-09T06:46:39;2.43;;;2.03;;
7203;SDS011;3643;52.460;13.322;2022-09-09T06:49:07;3.53;;;2.23;;
7203;SDS011;3643;52.460;13.322;2022-09-09T06:51:37;4.20;;;2.70;;
7203;SDS011;3643;52.460;13.322;2022-09-09T06:54:09;2.77;;;2.20;;
7203;SDS011;3643;52.460;13.322;2022-09-09T06:56:40;4.57;;;2.10;;
7203;SDS011;3643;52.460;13.322;2022-09-09T06:59:09;3.20;;;2.40;;
7203;SDS011;3643;52.460;13.322;2022-09-09T07:01:39;4.15;;;2.10;;
7203;SDS011;3643;52.460;13.322;2022-09-09T07:04:08;3.92;;;2.22;;
7203;SDS011;3643;52.460;13.322;2022-09-09T07:06:41;3.33;;;1.85;;
7203;SDS011;3643;52.460;13.322;2022-09-09T07:09:11;3.08;;;2.10;;
7203;SDS011;3643;52.460;13.322;2022-09-09T07:11:41;3.17;;;2.20;;
7203;SDS011;3643;52.460;13.322;2022-09-09T07:14:12;3.88;;;1.95;;
7203;SDS011;3643;52.460;13.322;2022-09-09T07:16:40;3.78;;;2.17;;
7203;SDS011;3643;52.460;13.322;2022-09-09T07:19:10;5.63;;;2.00;;
7203;SDS011;3643;52.460;13.322;2022-09-09T07:21:38;2.95;;;2.00;;
7203;SDS011;3643;52.460;13.322;2022-09-09T07:24:09;2.67;;;1.77;;
7203;SDS011;3643;52.460;13.322;2022-09-09T07:26:39;3.47;;;2.33;;
7203;SDS011;3643;52.460;13.322;2022-09-09T07:29:08;3.90;;;1.90;;
7203;SDS011;3643;52.460;13.322;2022-09-09T07:31:45;2.67;;;1.80;;
7203;SDS011;3643;52.460;13.322;2022-09-09T07:34:14;3.15;;;1.92;;
7203;SDS011;3643;52.460;13.322;2022-09-09T07:36:44;5.47;;;2.33;;
7203;SDS011;3643;52.460;13.322;2022-09-09T07:39:13;3.03;;;1.75;;
7203;SDS011;3643;52.460;13.322;2022-09-09T07:41:49;3.60;;;1.90;;
7203;SDS011;3643;52.460;13.322;2022-09-09T07:44:20;3.53;;;2.05;;
7203;SDS011;3643;52.460;13.322;2022-09-09T07:46:51;4.45;;;1.40;;
7203;SDS011;3643;52.460;13.322;2022-09-09T07:49:19;3.88;;;1.77;;
7203;SDS011;3643;52.460;13.322;2022-09-09T07:51:59;4.90;;;1.90;;
7203;SDS011;3643;52.460;13.322;2022-09-09T07:54:28;2.00;;;1.45;;
7203;SDS011;3643;52.460;13.322;2022-09-09T07:56:58;3.80;;;1.73;;
7203;SDS011;3643;52.460;13.322;2022-09-09T07:59:27;2.30;;;1.63;;
7203;SDS011;3643;52.460;13.322;2022-09-09T08:01:57;2.15;;;1.70;;
7203;SDS011;3643;52.460;13.322;2022-09-09T08:04:25;4.65;;;1.85;;
7203;SDS011;3643;52.460;13.322;2022-09-09T08:06:55;2.80;;;1.85;;
7203;SDS011;3643;52.460;13.322;2022-09-09T08:09:27;2.97;;;1.80;;
7203;SDS011;3643;52.460;13.322;2022-09-09T08:11:59;2.20;;;1.60;;
7203;SDS011;3643;52.460;13.322;2022-09-09T08:14:28;3.47;;;1.43;;
7203;SDS011;3643;52.460;13.322;2022-09-09T08:16:57;6.73;;;1.87;;
7203;SDS011;3643;52.460;13.322;2022-09-09T08:19:26;5.53;;;1.57;;
7203;SDS011;3643;52.460;13.322;2022-09-09T08:21:56;6.47;;;1.87;;
7203;SDS011;3643;52.460;13.322;2022-09-09T08:24:24;3.17;;;1.47;;
7203;SDS011;3643;52.460;13.322;2022-09-09T08:26:54;2.13;;;1.43;;
7203;SDS011;3643;52.460;13.322;2022-09-09T08:29:23;2.03;;;1.40;;
7203;SDS011;3643;52.460;13.322;2022-09-09T08:31:52;2.60;;;1.40;;
7203;SDS011;3643;52.460;13.322;2022-09-09T08:34:22;2.30;;;1.70;;
7203;SDS011;3643;52.460;13.322;2022-09-09T08:36:53;3.40;;;1.60;;
7203;SDS011;3643;52.460;13.322;2022-09-09T08:39:22;2.67;;;1.40;;
7203;SDS011;3643;52.460;13.322;2022-09-09T08:42:04;3.70;;;1.83;;
7203;SDS011;3643;52.460;13.322;2022-09-09T08:45:12;2.30;;;1.47;;
7203;SDS011;3643;52.460;13.322;2022-09-09T08:47:54;2.43;;;1.30;;
7203;SDS011;3643;52.460;13.322;2022-09-09T08:50:45;1.77;;;1.63;;
7203;SDS011;3643;52.460;13.322;2022-09-09T08:53:17;4.20;;;1.60;;
7203;SDS011;3643;52.460;13.322;2022-09-09T08:55:49;2.30;;;1.90;;
7203;SDS011;3643;52.460;13.322;2022-09-09T08:58:23;3.67;;;2.13;;
7203;SDS011;3643;52.460;13.322;2022-09-09T09:01:05;2.70;;;1.90;;
7203;SDS011;3643;52.460;13.322;2022-09-09T09:03:51;5.33;;;1.97;;
7203;SDS011;3643;52.460;13.322;2022-09-09T09:06:31;1.90;;;1.60;;
7203;SDS011;3643;52.460;13.322;2022-09-09T09:09:11;3.43;;;1.70;;
7203;SDS011;3643;52.460;13.322;2022-09-09T09:11:47;5.87;;;1.90;;
7203;SDS011;3643;52.460;13.322;2022-09-09T09:14:19;2.23;;;1.63;;
7203;SDS011;3643;52.460;13.322;2022-09-09T09:16:51;2.83;;;1.70;;
7203;SDS011;3643;52.460;13.322;2022-09-09T09:19:22;3.57;;;1.87;;
7203;SDS011;3643;52.460;13.322;2022-09-09T09:21:54;4.07;;;1.63;;
7203;SDS011;3643;52.460;13.322;2022-09-09T09:24:31;2.90;;;1.50;;
7203;SDS011;3643;52.460;13.322;2022-09-09T09:27:16;3.37;;;1.63;;
7203;SDS011;3643;52.460;13.322;2022-09-09T09:29:50;6.93;;;2.07;;
7203;SDS011;3643;52.460;13.322;2022-09-09T09:32:44;5.27;;;1.60;;
7203;SDS011;3643;52.460;13.322;2022-09-09T09:35:20;4.27;;;1.90;;
7203;SDS011;3643;52.460;13.322;2022-09-09T09:37:50;3.77;;;2.20;;
7203;SDS011;3643;52.460;13.322;2022-09-09T09:40:47;1.90;;;1.40;;
7203;SDS011;3643;52.460;13.322;2022-09-09T09:43:18;6.07;;;1.87;;
7203;SDS011;3643;52.460;13.322;2022-09-09T09:45:52;2.27;;;1.60;;
7203;SDS011;3643;52.460;13.322;2022-09-09T09:48:41;2.80;;;1.60;;
7203;SDS011;3643;52.460;13.322;2022-09-09T09:51:11;3.07;;;1.60;;
7203;SDS011;3643;52.460;13.322;2022-09-09T09:53:45;2.67;;;1.50;;
7203;SDS011;3643;52.460;13.322;2022-09-09T09:56:16;7.10;;;1.70;;
7203;SDS011;3643;52.460;13.322;2022-09-09T09:58:53;2.80;;;1.43;;
7203;SDS011;3643;52.460;13.322;2022-09-09T10:01:24;4.50;;;1.70;;
7203;SDS011;3643;52.460;13.322;2022-09-09T10:03:55;2.47;;;1.30;;
7203;SDS011;3643;52.460;13.322;2022-09-09T10:06:30;2.53;;;1.30;;
7203;SDS011;3643;52.460;13.322;2022-09-09T10:08:59;3.03;;;1.40;;
7203;SDS011;3643;52.460;13.322;2022-09-09T10:11:35;2.33;;;1.70;;
7203;SDS011;3643;52.460;13.322;2022-09-09T10:14:15;2.10;;;1.37;;
7203;SDS011;3643;52.460;13.322;2022-09-09T10:16:52;5.03;;;1.30;;
7203;SDS011;3643;52.460;13.322;2022-09-09T10:19:34;4.23;;;1.30;;
7203;SDS011;3643;52.460;13.322;2022-09-09T10:22:13;2.87;;;1.27;;
7203;SDS011;3643;52.460;13.322;2022-09-09T10:25:00;4.57;;;1.50;;
7203;SDS011;3643;52.460;13.322;2022-09-09T10:31:03;4.10;;;1.73;;
7203;SDS011;3643;52.460;13.322;2022-09-09T10:33:47;1.90;;;1.50;;
7203;SDS011;3643;52.460;13.322;2022-09-09T10:36:19;4.33;;;1.47;;
7203;SDS011;3643;52.460;13.322;2022-09-09T10:38:52;2.20;;;1.30;;
7203;SDS011;3643;52.460;13.322;2022-09-09T10:41:31;2.10;;;1.17;;
7203;SDS011;3643;52.460;13.322;2022-09-09T10:44:16;2.57;;;1.30;;
7203;SDS011;3643;52.460;13.322;2022-09-09T10:46:59;3.53;;;1.40;;
7203;SDS011;3643;52.460;13.322;2022-09-09T10:49:55;2.10;;;1.40;;
7203;SDS011;3643;52.460;13.322;2022-09-09T10:52:48;3.10;;;1.53;;
7203;SDS011;3643;52.460;13.322;2022-09-09T10:55:24;2.43;;;1.17;;
7203;SDS011;3643;52.460;13.322;2022-09-09T10:57:57;2.40;;;1.30;;
7203;SDS011;3643;52.460;13.322;2022-09-09T11:00:39;2.50;;;1.40;;
7203;SDS011;3643;52.460;13.322;2022-09-09T11:03:19;3.37;;;1.93;;
7203;SDS011;3643;52.460;13.322;2022-09-09T11:05:52;2.47;;;1.60;;
7203;SDS011;3643;52.460;13.322;2022-09-09T11:08:25;2.13;;;1.47;;
7203;SDS011;3643;52.460;13.322;2022-09-09T11:10:57;4.97;;;1.50;;
7203;SDS011;3643;52.460;13.322;2022-09-09T11:13:31;3.63;;;1.40;;
7203;SDS011;3643;52.460;13.322;2022-09-09T11:16:04;2.53;;;1.23;;
7203;SDS011;3643;52.460;13.322;2022-09-09T11:18:44;1.30;;;1.20;;
7203;SDS011;3643;52.460;13.322;2022-09-09T11:21:18;3.20;;;1.17;;
7203;SDS011;3643;52.460;13.322;2022-09-09T11:23:50;1.57;;;1.20;;
7203;SDS011;3643;52.460;13.322;2022-09-09T11:26:27;4.57;;;1.70;;
7203;SDS011;3643;52.460;13.322;2022-09-09T11:29:06;3.23;;;1.10;;
7203;SDS011;3643;52.460;13.322;2022-09-09T11:31:46;3.23;;;1.30;;
7203;SDS011;3643;52.460;13.322;2022-09-09T11:34:35;4.17;;;1.30;;
7203;SDS011;3643;52.460;13.322;2022-09-09T11:37:29;1.37;;;0.90;;
7203;SDS011;3643;52.460;13.322;2022-09-09T11:40:23;2.60;;;1.33;;
7203;SDS011;3643;52.460;13.322;2022-09-09T11:43:02;2.87;;;1.40;;
7203;SDS011;3643;52.460;13.322;2022-09-09T11:45:33;2.77;;;1.30;;
7203;SDS011;3643;52.460;13.322;2022-09-09T11:48:03;1.33;;;1.23;;
7203;SDS011;3643;52.460;13.322;2022-09-09T11:50:34;2.83;;;1.30;;
7203;SDS011;3643;52.460;13.322;2022-09-09T11:53:21;4.23;;;1.50;;
7203;SDS011;3643;52.460;13.322;2022-09-09T11:56:00;1.40;;;1.30;;
7203;SDS011;3643;52.460;13.322;2022-09-09T11:58:33;3.40;;;1.50;;
7203;SDS011;3643;52.460;13.322;2022-09-09T12:01:13;2.37;;;1.30;;
7203;SDS011;3643;52.460;13.322;2022-09-09T12:03:43;1.67;;;1.27;;
7203;SDS011;3643;52.460;13.322;2022-09-09T12:06:17;2.40;;;1.30;;
7203;SDS011;3643;52.460;13.322;2022-09-09T12:08:55;5.77;;;1.53;;
7203;SDS011;3643;52.460;13.322;2022-09-09T12:11:33;3.13;;;1.27;;
7203;SDS011;3643;52.460;13.322;2022-09-09T12:14:01;3.50;;;1.40;;
7203;SDS011;3643;52.460;13.322;2022-09-09T12:16:32;7.73;;;2.10;;
7203;SDS011;3643;52.460;13.322;2022-09-09T12:19:06;2.70;;;1.60;;
7203;SDS011;3643;52.460;13.322;2022-09-09T12:21:45;2.00;;;1.30;;
7203;SDS011;3643;52.460;13.322;2022-09-09T12:24:21;1.90;;;1.30;;
7203;SDS011;3643;52.460;13.322;2022-09-09T12:26:58;5.20;;;1.43;;
7203;SDS011;3643;52.460;13.322;2022-09-09T12:29:37;5.60;;;1.60;;
7203;SDS011;3643;52.460;13.322;2022-09-09T12:32:11;3.23;;;1.60;;
7203;SDS011;3643;52.460;13.322;2022-09-09T12:34:43;2.03;;;1.10;;
7203;SDS011;3643;52.460;13.322;2022-09-09T12:37:17;1.90;;;1.27;;
7203;SDS011;3643;52.460;13.322;2022-09-09T12:39:55;1.33;;;1.20;;
7203;SDS011;3643;52.460;13.322;2022-09-09T12:42:25;2.30;;;1.10;;
7203;SDS011;3643;52.460;13.322;2022-09-09T12:44:55;2.23;;;1.10;;
7203;SDS011;3643;52.460;13.322;2022-09-09T12:47:26;2.43;;;1.00;;
7203;SDS011;3643;52.460;13.322;2022-09-09T12:50:01;4.53;;;1.30;;
7203;SDS011;3643;52.460;13.322;2022-09-09T12:52:31;2.60;;;1.17;;
7203;SDS011;3643;52.460;13.322;2022-09-09T12:55:05;2.27;;;1.30;;
7203;SDS011;3643;52.460;13.322;2022-09-09T12:57:36;1.97;;;1.03;;
7203;SDS011;3643;52.460;13.322;2022-09-09T13:00:08;5.43;;;1.20;;
7203;SDS011;3643;52.460;13.322;2022-09-09T13:02:45;4.13;;;1.03;;
7203;SDS011;3643;52.460;13.322;2022-09-09T13:05:17;4.10;;;1.30;;
7203;SDS011;3643;52.460;13.322;2022-09-09T13:07:48;1.37;;;1.23;;
7203;SDS011;3643;52.460;13.322;2022-09-09T13:10:21;3.13;;;1.63;;
7203;SDS011;3643;52.460;13.322;2022-09-09T13:13:13;4.80;;;1.50;;
7203;SDS011;3643;52.460;13.322;2022-09-09T13:15:48;1.50;;;1.10;;
7203;SDS011;3643;52.460;13.322;2022-09-09T13:18:20;2.23;;;1.10;;
7203;SDS011;3643;52.460;13.322;2022-09-09T13:20:51;3.67;;;1.10;;
7203;SDS011;3643;52.460;13.322;2022-09-09T13:23:20;2.03;;;1.30;;
7203;SDS011;3643;52.460;13.322;2022-09-09T13:25:54;1.60;;;1.20;;
7203;SDS011;3643;52.460;13.322;2022-09-09T13:28:25;5.80;;;1.50;;
7203;SDS011;3643;52.460;13.322;2022-09-09T13:31:00;5.87;;;1.40;;
7203;SDS011;3643;52.460;13.322;2022-09-09T13:33:31;1.80;;;1.30;;
7203;SDS011;3643;52.460;13.322;2022-09-09T13:36:03;3.03;;;1.30;;
7203;SDS011;3643;52.460;13.322;2022-09-09T13:38:36;2.30;;;1.30;;
7203;SDS011;3643;52.460;13.322;2022-09-09T13:41:08;2.80;;;1.30;;
7203;SDS011;3643;52.460;13.322;2022-09-09T13:43:41;2.67;;;1.20;;
7203;SDS011;3643;52.460;13.322;2022-09-09T13:46:23;4.93;;;1.67;;
7203;SDS011;3643;52.460;13.322;2022-09-09T13:48:56;3.70;;;1.30;;
7203;SDS011;3643;52.460;13.322;2022-09-09T13:51:29;1.83;;;0.90;;
7203;SDS011;3643;52.460;13.322;2022-09-09T13:54:03;2.37;;;1.10;;
7203;SDS011;3643;52.460;13.322;2022-09-09T13:56:35;1.00;;;0.90;;
7203;SDS011;3643;52.460;13.322;2022-09-09T13:59:06;5.43;;;1.97;;
7203;SDS011;3643;52.460;13.322;2022-09-09T14:01:38;3.13;;;1.50;;
7203;SDS011;3643;52.460;13.322;2022-09-09T14:04:07;4.57;;;1.70;;
7203;SDS011;3643;52.460;13.322;2022-09-09T14:06:37;4.73;;;1.47;;
7203;SDS011;3643;52.460;13.322;2022-09-09T14:09:07;1.33;;;1.00;;
7203;SDS011;3643;52.460;13.322;2022-09-09T14:11:39;2.90;;;1.20;;
7203;SDS011;3643;52.460;13.322;2022-09-09T14:14:09;5.30;;;1.63;;
7203;SDS011;3643;52.460;13.322;2022-09-09T14:16:38;2.77;;;1.30;;
7203;SDS011;3643;52.460;13.322;2022-09-09T14:19:07;3.03;;;1.47;;
7203;SDS011;3643;52.460;13.322;2022-09-09T14:21:36;2.87;;;1.30;;
7203;SDS011;3643;52.460;13.322;2022-09-09T14:24:05;2.73;;;1.20;;
7203;SDS011;3643;52.460;13.322;2022-09-09T14:26:34;1.97;;;1.00;;
7203;SDS011;3643;52.460;13.322;2022-09-09T14:29:04;3.50;;;1.23;;
7203;SDS011;3643;52.460;13.322;2022-09-09T14:31:33;4.53;;;1.50;;
7203;SDS011;3643;52.460;13.322;2022-09-09T14:34:02;2.87;;;1.40;;
7203;SDS011;3643;52.460;13.322;2022-09-09T14:36:30;3.17;;;1.37;;
7203;SDS011;3643;52.460;13.322;2022-09-09T14:38:59;3.20;;;1.33;;
7203;SDS011;3643;52.460;13.322;2022-09-09T14:41:28;2.03;;;1.27;;
7203;SDS011;3643;52.460;13.322;2022-09-09T14:43:56;2.83;;;1.10;;
7203;SDS011;3643;52.460;13.322;2022-09-09T14:46:27;2.73;;;1.20;;
7203;SDS011;3643;52.460;13.322;2022-09-09T14:48:56;1.20;;;1.10;;
7203;SDS011;3643;52.460;13.322;2022-09-09T14:51:26;2.40;;;1.30;;
7203;SDS011;3643;52.460;13.322;2022-09-09T14:53:55;2.30;;;1.30;;
7203;SDS011;3643;52.460;13.322;2022-09-09T14:56:25;4.43;;;1.43;;
7203;SDS011;3643;52.460;13.322;2022-09-09T14:58:56;2.97;;;1.30;;
7203;SDS011;3643;52.460;13.322;2022-09-09T15:01:29;2.33;;;1.23;;
7203;SDS011;3643;52.460;13.322;2022-09-09T15:03:59;4.50;;;1.20;;
7203;SDS011;3643;52.460;13.322;2022-09-09T15:06:32;5.77;;;1.60;;
7203;SDS011;3643;52.460;13.322;2022-09-09T15:09:03;2.60;;;1.10;;
7203;SDS011;3643;52.460;13.322;2022-09-09T15:11:33;2.30;;;1.23;;
7203;SDS011;3643;52.460;13.322;2022-09-09T15:14:04;1.30;;;1.20;;
7203;SDS011;3643;52.460;13.322;2022-09-09T15:16:35;1.47;;;1.03;;
7203;SDS011;3643;52.460;13.322;2022-09-09T15:19:05;1.70;;;1.20;;
7203;SDS011;3643;52.460;13.322;2022-09-09T15:21:35;2.07;;;1.20;;
7203;SDS011;3643;52.460;13.322;2022-09-09T15:24:05;2.47;;;1.30;;
7203;SDS011;3643;52.460;13.322;2022-09-09T15:26:35;2.50;;;1.50;;
7203;SDS011;3643;52.460;13.322;2022-09-09T15:29:05;1.70;;;1.30;;
7203;SDS011;3643;52.460;13.322;2022-09-09T15:31:36;2.17;;;1.10;;